CST,Max TemperatureF,Mean TemperatureF,Min TemperatureF,Max Dew PointF,MeanDew PointF,Min DewpointF,Max Humidity, Mean Humidity, Min Humidity, Max Sea Level PressureIn, Mean Sea Level PressureIn, Min Sea Level PressureIn, Max VisibilityMiles, Mean VisibilityMiles, Min VisibilityMiles, Max Wind SpeedMPH, Mean Wind SpeedMPH, Max Gust SpeedMPH,PrecipitationIn, CloudCover, Events, WindDirDegrees
2013-11-1,62,49,36,34,31,26,82,55,27,30.21,30.01,29.80,10,10,10,25,11,32,0.00,1,,329
2013-11-2,66,48,29,31,28,25,85,55,24,30.33,30.16,29.95,10,10,10,24,9,30,0.00,0,,190
2013-11-3,78,62,46,36,30,28,50,33,16,29.92,29.70,29.54,10,10,10,37,21,46,0.00,0,,190
2013-11-4,60,50,40,38,34,31,76,56,36,29.98,29.89,29.62,10,10,10,23,10,30,0.00,1,,49
2013-11-5,59,48,37,54,44,31,93,77,61,30.15,29.90,29.81,10,8,3,29,12,36,0.18,8,Rain-Thunderstorm,349
2013-11-6,56,42,28,29,24,17,85,55,24,30.34,30.27,30.18,10,10,10,15,7,18,0.00,1,,253
2013-11-7,64,46,27,32,26,22,85,53,20,30.46,30.33,30.14,10,10,10,16,6,21,0.00,0,,160
2013-11-8,74,57,40,34,26,22,65,40,15,30.11,29.88,29.73,10,10,10,37,19,46,0.00,0,,206
2013-11-9,65,51,36,41,36,32,82,60,37,30.21,30.05,29.83,10,10,10,18,10,25,0.00,0,,38
2013-11-10,54,43,32,50,41,32,100,89,77,30.33,30.26,30.19,10,4,0,13,5,16,0.00,6,Fog,216
2013-11-11,70,51,31,43,37,26,100,64,28,30.62,30.26,30.13,10,6,0,28,12,35,0.00,4,Fog,328
2013-11-12,45,35,24,26,22,16,81,63,45,30.85,30.72,30.59,10,10,10,24,7,31,0.00,2,,39
2013-11-13,67,48,28,38,32,24,92,62,32,30.54,30.26,30.00,10,10,10,31,16,39,0.00,0,,194
2013-11-14,62,48,33,35,32,28,82,58,33,29.97,29.89,29.84,10,10,10,28,12,36,0.00,0,,304
2013-11-15,71,49,26,38,31,25,85,53,20,29.90,29.69,29.48,10,10,10,30,12,40,0.00,0,,205
2013-11-16,73,61,49,41,34,28,59,40,20,29.45,29.38,29.28,10,10,10,40,25,53,0.00,1,,224
2013-11-17,67,52,36,34,27,15,64,44,24,30.11,29.79,29.38,10,10,10,30,8,37,0.00,0,,63
2013-11-18,60,44,27,21,18,12,63,40,17,30.26,30.17,30.10,10,10,10,18,7,23,0.00,0,,188
2013-11-19,74,54,34,42,28,18,52,36,19,30.09,29.82,29.62,10,10,10,30,14,37,0.00,0,,189
2013-11-20,64,57,50,38,31,22,59,44,29,29.85,29.75,29.60,10,10,10,10,8,14,T,2,,329
2013-11-21,51,37,22,40,22,10,89,75,61,30.59,30.23,29.77,10,10,5,31,19,41,T,7,,2
2013-11-22,25,22,19,22,16,10,88,75,62,30.73,30.62,30.55,10,6,0,29,15,35,0.24,8,Fog-Snow,356
2013-11-23,33,29,24,24,21,17,88,73,58,30.73,30.66,30.60,10,8,1,17,7,21,0.07,8,Snow,25
2013-11-24,32,29,26,26,24,21,92,82,72,30.65,30.44,30.09,10,6,0,28,12,36,0.19,8,Fog-Snow,182
2013-11-25,31,23,14,24,20,11,88,80,72,30.32,30.16,30.02,10,10,10,20,10,24,0.00,3,,326
2013-11-26,42,33,23,24,21,18,81,63,45,30.44,30.38,30.31,10,10,10,16,7,21,0.00,0,,336
2013-11-27,56,38,20,35,27,17,91,66,41,30.43,30.24,30.10,10,10,10,24,10,29,0.00,0,,199
2013-11-28,46,38,29,31,29,26,85,69,53,30.35,30.23,30.06,10,10,10,20,9,24,0.00,0,,2
2013-11-29,62,43,23,36,30,20,92,64,36,30.33,30.18,30.05,10,10,10,25,10,31,0.00,0,,219
2013-11-30,64,48,31,31,28,25,82,53,23,30.17,30.11,30.05,10,10,10,12,4,13,0.00,0,,237